CYNR

METAR CYNR 250500Z AUTO 02005KT 310V090 9SM SCT044 BKN060 OVC082 17/15 A2976 RMK AO2 SLP072
METAR
LOCATION
CYNR
DATE - TIME
250500Z
WIND
020 TRUE @ 5 KNOTS VARYING 310 TO 090
VISIBILITY
9SM
RUNWAY VISUAL RANGE
NOT REPORTED
WEATHER
CLOUDINESS
SCT044 BKN060 OVC082
TEMP / DEWPOINT
17 ºC / 15 ºC
ALTIMETER
29.76 in. Hg
RECENT WEATHER
NOT REPORTED
WIND SHEAR
NOT REPORTED
REMARKS
RMK AO2 SLP072
SEA LEVEL PRESSURE: hPa

CYNR

METAR CYNR 250400Z AUTO 35003KT 9SM BR SCT094 18/15 A2975 RMK AO2 SLP070
METAR
LOCATION
CYNR
DATE - TIME
250400Z
WIND
350 TRUE @ 3 KNOTS
VISIBILITY
9SM
RUNWAY VISUAL RANGE
NOT REPORTED
WEATHER
MIST
CLOUDINESS
SCT094
TEMP / DEWPOINT
18 ºC / 15 ºC
ALTIMETER
29.75 in. Hg
RECENT WEATHER
NOT REPORTED
WIND SHEAR
NOT REPORTED
REMARKS
RMK AO2 SLP070
SEA LEVEL PRESSURE: hPa

CYNR

METAR CYNR 250300Z AUTO 00006KT 9SM BKN088 OVC130 17/15 A2974 RMK AO2 SLP068
METAR
LOCATION
CYNR
DATE - TIME
250300Z
WIND
000 TRUE @ 6 KNOTS
VISIBILITY
9SM
RUNWAY VISUAL RANGE
NOT REPORTED
WEATHER
CLOUDINESS
BKN088 OVC130
TEMP / DEWPOINT
17 ºC / 15 ºC
ALTIMETER
29.74 in. Hg
RECENT WEATHER
NOT REPORTED
WIND SHEAR
NOT REPORTED
REMARKS
RMK AO2 SLP068
SEA LEVEL PRESSURE: hPa

Your time UTC time
 
 
Weather data provided by AXYS Technologies Inc., www.axystechnologies.com
 
Station History